sensor_id;sensor_type;location;lat;lon;timestamp;P1;durP1;ratioP1;P2;durP2;ratioP2
13805;SDS011;6974;53.606;9.872;2023-10-13T00:01:47;7.80;;;4.20;;
13805;SDS011;6974;53.606;9.872;2023-10-13T00:04:17;10.23;;;4.17;;
13805;SDS011;6974;53.606;9.872;2023-10-13T00:06:48;9.43;;;3.40;;
13805;SDS011;6974;53.606;9.872;2023-10-13T00:09:14;10.17;;;4.13;;
13805;SDS011;6974;53.606;9.872;2023-10-13T00:11:45;11.47;;;3.83;;
13805;SDS011;6974;53.606;9.872;2023-10-13T00:14:14;9.33;;;4.03;;
13805;SDS011;6974;53.606;9.872;2023-10-13T00:16:42;7.07;;;4.10;;
13805;SDS011;6974;53.606;9.872;2023-10-13T00:19:26;9.70;;;4.20;;
13805;SDS011;6974;53.606;9.872;2023-10-13T00:21:54;8.60;;;4.53;;
13805;SDS011;6974;53.606;9.872;2023-10-13T00:24:33;12.20;;;4.53;;
13805;SDS011;6974;53.606;9.872;2023-10-13T00:27:11;11.63;;;5.03;;
13805;SDS011;6974;53.606;9.872;2023-10-13T00:29:54;9.50;;;4.47;;
13805;SDS011;6974;53.606;9.872;2023-10-13T00:32:41;10.70;;;4.93;;
13805;SDS011;6974;53.606;9.872;2023-10-13T00:35:09;9.90;;;4.43;;
13805;SDS011;6974;53.606;9.872;2023-10-13T00:37:49;11.03;;;5.43;;
13805;SDS011;6974;53.606;9.872;2023-10-13T00:40:18;8.57;;;4.83;;
13805;SDS011;6974;53.606;9.872;2023-10-13T00:43:08;10.67;;;5.30;;
13805;SDS011;6974;53.606;9.872;2023-10-13T00:45:52;11.93;;;5.67;;
13805;SDS011;6974;53.606;9.872;2023-10-13T00:48:23;9.20;;;5.27;;
13805;SDS011;6974;53.606;9.872;2023-10-13T00:50:55;14.63;;;6.70;;
13805;SDS011;6974;53.606;9.872;2023-10-13T00:53:24;13.67;;;6.57;;
13805;SDS011;6974;53.606;9.872;2023-10-13T00:55:51;8.80;;;5.37;;
13805;SDS011;6974;53.606;9.872;2023-10-13T00:58:22;11.27;;;6.20;;
13805;SDS011;6974;53.606;9.872;2023-10-13T01:00:50;12.13;;;6.80;;
13805;SDS011;6974;53.606;9.872;2023-10-13T01:03:42;14.53;;;6.53;;
13805;SDS011;6974;53.606;9.872;2023-10-13T01:06:09;16.53;;;7.47;;
13805;SDS011;6974;53.606;9.872;2023-10-13T01:08:37;14.37;;;7.60;;
13805;SDS011;6974;53.606;9.872;2023-10-13T01:11:03;17.33;;;8.20;;
13805;SDS011;6974;53.606;9.872;2023-10-13T01:13:34;13.30;;;7.97;;
13805;SDS011;6974;53.606;9.872;2023-10-13T01:16:02;19.03;;;8.37;;
13805;SDS011;6974;53.606;9.872;2023-10-13T01:18:29;18.33;;;9.07;;
13805;SDS011;6974;53.606;9.872;2023-10-13T01:20:56;17.17;;;8.77;;
13805;SDS011;6974;53.606;9.872;2023-10-13T01:23:26;23.33;;;9.87;;
13805;SDS011;6974;53.606;9.872;2023-10-13T01:25:53;18.07;;;9.60;;
13805;SDS011;6974;53.606;9.872;2023-10-13T01:28:21;15.77;;;9.53;;
13805;SDS011;6974;53.606;9.872;2023-10-13T01:30:49;14.40;;;9.87;;
13805;SDS011;6974;53.606;9.872;2023-10-13T01:33:15;19.63;;;10.33;;
13805;SDS011;6974;53.606;9.872;2023-10-13T01:35:42;21.33;;;10.13;;
13805;SDS011;6974;53.606;9.872;2023-10-13T01:38:12;17.67;;;10.37;;
13805;SDS011;6974;53.606;9.872;2023-10-13T01:40:41;20.40;;;11.00;;
13805;SDS011;6974;53.606;9.872;2023-10-13T01:43:08;17.57;;;10.27;;
13805;SDS011;6974;53.606;9.872;2023-10-13T01:45:36;17.50;;;11.17;;
13805;SDS011;6974;53.606;9.872;2023-10-13T01:48:14;19.90;;;11.77;;
13805;SDS011;6974;53.606;9.872;2023-10-13T01:50:42;18.87;;;12.10;;
13805;SDS011;6974;53.606;9.872;2023-10-13T01:53:12;19.40;;;11.47;;
13805;SDS011;6974;53.606;9.872;2023-10-13T01:55:40;21.07;;;11.13;;
13805;SDS011;6974;53.606;9.872;2023-10-13T01:58:09;23.27;;;13.50;;
13805;SDS011;6974;53.606;9.872;2023-10-13T02:00:41;21.87;;;12.80;;
13805;SDS011;6974;53.606;9.872;2023-10-13T02:03:09;21.33;;;14.23;;
13805;SDS011;6974;53.606;9.872;2023-10-13T02:05:41;22.57;;;14.37;;
13805;SDS011;6974;53.606;9.872;2023-10-13T02:08:13;20.70;;;14.13;;
13805;SDS011;6974;53.606;9.872;2023-10-13T02:10:45;22.97;;;13.53;;
13805;SDS011;6974;53.606;9.872;2023-10-13T02:13:12;26.47;;;14.00;;
13805;SDS011;6974;53.606;9.872;2023-10-13T02:15:41;26.23;;;14.27;;
13805;SDS011;6974;53.606;9.872;2023-10-13T02:18:09;24.43;;;14.17;;
13805;SDS011;6974;53.606;9.872;2023-10-13T02:20:36;25.77;;;14.70;;
13805;SDS011;6974;53.606;9.872;2023-10-13T02:23:08;23.10;;;14.63;;
13805;SDS011;6974;53.606;9.872;2023-10-13T02:25:35;26.03;;;15.07;;
13805;SDS011;6974;53.606;9.872;2023-10-13T02:28:12;24.03;;;15.80;;
13805;SDS011;6974;53.606;9.872;2023-10-13T02:30:46;21.57;;;15.03;;
13805;SDS011;6974;53.606;9.872;2023-10-13T02:33:15;31.60;;;17.20;;
13805;SDS011;6974;53.606;9.872;2023-10-13T02:35:46;28.97;;;15.63;;
13805;SDS011;6974;53.606;9.872;2023-10-13T02:38:18;25.60;;;15.03;;
13805;SDS011;6974;53.606;9.872;2023-10-13T02:40:53;24.17;;;15.23;;
13805;SDS011;6974;53.606;9.872;2023-10-13T02:43:22;28.53;;;16.17;;
13805;SDS011;6974;53.606;9.872;2023-10-13T02:45:52;26.37;;;14.87;;
13805;SDS011;6974;53.606;9.872;2023-10-13T02:48:23;24.27;;;15.53;;
13805;SDS011;6974;53.606;9.872;2023-10-13T02:50:56;24.30;;;15.30;;
13805;SDS011;6974;53.606;9.872;2023-10-13T02:53:27;23.43;;;15.87;;
13805;SDS011;6974;53.606;9.872;2023-10-13T02:55:55;32.20;;;16.17;;
13805;SDS011;6974;53.606;9.872;2023-10-13T02:58:32;33.37;;;17.07;;
13805;SDS011;6974;53.606;9.872;2023-10-13T03:01:07;27.33;;;15.63;;
13805;SDS011;6974;53.606;9.872;2023-10-13T03:03:43;29.33;;;16.27;;
13805;SDS011;6974;53.606;9.872;2023-10-13T03:06:15;30.20;;;16.40;;
13805;SDS011;6974;53.606;9.872;2023-10-13T03:08:43;30.07;;;16.47;;
13805;SDS011;6974;53.606;9.872;2023-10-13T03:11:10;27.73;;;16.33;;
13805;SDS011;6974;53.606;9.872;2023-10-13T03:13:40;22.43;;;15.30;;
13805;SDS011;6974;53.606;9.872;2023-10-13T03:16:13;23.80;;;15.37;;
13805;SDS011;6974;53.606;9.872;2023-10-13T03:18:43;32.57;;;17.23;;
13805;SDS011;6974;53.606;9.872;2023-10-13T03:21:19;28.47;;;17.07;;
13805;SDS011;6974;53.606;9.872;2023-10-13T03:23:54;26.50;;;17.30;;
13805;SDS011;6974;53.606;9.872;2023-10-13T03:26:28;32.03;;;18.47;;
13805;SDS011;6974;53.606;9.872;2023-10-13T03:29:03;27.90;;;17.57;;
13805;SDS011;6974;53.606;9.872;2023-10-13T03:31:34;25.00;;;16.57;;
13805;SDS011;6974;53.606;9.872;2023-10-13T03:34:04;25.87;;;15.40;;
13805;SDS011;6974;53.606;9.872;2023-10-13T03:36:37;29.90;;;17.83;;
13805;SDS011;6974;53.606;9.872;2023-10-13T03:39:27;25.40;;;16.77;;
13805;SDS011;6974;53.606;9.872;2023-10-13T03:41:56;25.90;;;15.40;;
13805;SDS011;6974;53.606;9.872;2023-10-13T03:44:26;22.40;;;15.43;;
13805;SDS011;6974;53.606;9.872;2023-10-13T03:46:56;23.30;;;14.13;;
13805;SDS011;6974;53.606;9.872;2023-10-13T03:49:33;21.70;;;14.50;;
13805;SDS011;6974;53.606;9.872;2023-10-13T03:52:04;19.50;;;14.13;;
13805;SDS011;6974;53.606;9.872;2023-10-13T03:54:31;20.37;;;14.47;;
13805;SDS011;6974;53.606;9.872;2023-10-13T03:57:00;21.00;;;15.37;;
13805;SDS011;6974;53.606;9.872;2023-10-13T03:59:37;20.87;;;14.77;;
13805;SDS011;6974;53.606;9.872;2023-10-13T04:02:05;18.47;;;14.13;;
13805;SDS011;6974;53.606;9.872;2023-10-13T04:04:43;20.60;;;15.40;;
13805;SDS011;6974;53.606;9.872;2023-10-13T04:07:15;22.33;;;15.20;;
13805;SDS011;6974;53.606;9.872;2023-10-13T04:09:59;20.90;;;15.10;;
13805;SDS011;6974;53.606;9.872;2023-10-13T04:12:40;18.40;;;14.33;;
13805;SDS011;6974;53.606;9.872;2023-10-13T04:15:26;20.87;;;14.57;;
13805;SDS011;6974;53.606;9.872;2023-10-13T04:18:02;19.60;;;15.00;;
13805;SDS011;6974;53.606;9.872;2023-10-13T04:20:43;20.10;;;15.03;;
13805;SDS011;6974;53.606;9.872;2023-10-13T04:23:11;16.80;;;13.67;;
13805;SDS011;6974;53.606;9.872;2023-10-13T04:25:47;20.43;;;14.80;;
13805;SDS011;6974;53.606;9.872;2023-10-13T04:28:34;24.67;;;16.63;;
13805;SDS011;6974;53.606;9.872;2023-10-13T04:31:04;21.17;;;15.70;;
13805;SDS011;6974;53.606;9.872;2023-10-13T04:33:37;22.27;;;17.17;;
13805;SDS011;6974;53.606;9.872;2023-10-13T04:36:16;26.17;;;17.57;;
13805;SDS011;6974;53.606;9.872;2023-10-13T04:39:01;21.30;;;18.33;;
13805;SDS011;6974;53.606;9.872;2023-10-13T04:41:38;28.50;;;19.77;;
13805;SDS011;6974;53.606;9.872;2023-10-13T04:44:07;29.77;;;21.67;;
13805;SDS011;6974;53.606;9.872;2023-10-13T04:47:04;28.63;;;22.10;;
13805;SDS011;6974;53.606;9.872;2023-10-13T04:49:38;29.20;;;22.10;;
13805;SDS011;6974;53.606;9.872;2023-10-13T04:52:17;33.40;;;23.93;;
13805;SDS011;6974;53.606;9.872;2023-10-13T04:55:16;38.27;;;26.37;;
13805;SDS011;6974;53.606;9.872;2023-10-13T04:57:58;36.27;;;27.27;;
13805;SDS011;6974;53.606;9.872;2023-10-13T05:00:36;36.87;;;25.97;;
13805;SDS011;6974;53.606;9.872;2023-10-13T05:03:44;41.27;;;27.80;;
13805;SDS011;6974;53.606;9.872;2023-10-13T05:06:33;42.80;;;29.33;;
13805;SDS011;6974;53.606;9.872;2023-10-13T05:09:18;44.57;;;31.07;;
13805;SDS011;6974;53.606;9.872;2023-10-13T05:12:04;45.13;;;32.13;;
13805;SDS011;6974;53.606;9.872;2023-10-13T05:14:49;48.07;;;34.80;;
13805;SDS011;6974;53.606;9.872;2023-10-13T05:17:33;45.07;;;34.43;;
13805;SDS011;6974;53.606;9.872;2023-10-13T05:20:19;46.03;;;32.63;;
13805;SDS011;6974;53.606;9.872;2023-10-13T05:23:03;47.23;;;34.50;;
13805;SDS011;6974;53.606;9.872;2023-10-13T05:25:47;44.90;;;32.97;;
13805;SDS011;6974;53.606;9.872;2023-10-13T05:28:32;46.27;;;33.77;;
13805;SDS011;6974;53.606;9.872;2023-10-13T05:31:16;47.57;;;34.07;;
13805;SDS011;6974;53.606;9.872;2023-10-13T05:34:00;50.93;;;37.20;;
13805;SDS011;6974;53.606;9.872;2023-10-13T05:36:46;50.77;;;35.00;;
13805;SDS011;6974;53.606;9.872;2023-10-13T05:39:30;46.87;;;34.30;;
13805;SDS011;6974;53.606;9.872;2023-10-13T05:42:14;47.80;;;34.93;;
13805;SDS011;6974;53.606;9.872;2023-10-13T05:44:59;52.73;;;35.13;;
13805;SDS011;6974;53.606;9.872;2023-10-13T05:47:39;54.60;;;36.10;;
13805;SDS011;6974;53.606;9.872;2023-10-13T05:50:15;51.13;;;35.47;;
13805;SDS011;6974;53.606;9.872;2023-10-13T05:52:59;51.10;;;35.73;;
13805;SDS011;6974;53.606;9.872;2023-10-13T05:55:44;46.73;;;34.90;;
13805;SDS011;6974;53.606;9.872;2023-10-13T05:58:28;48.17;;;36.30;;
13805;SDS011;6974;53.606;9.872;2023-10-13T06:01:13;55.60;;;37.20;;
13805;SDS011;6974;53.606;9.872;2023-10-13T06:03:58;47.00;;;34.13;;
13805;SDS011;6974;53.606;9.872;2023-10-13T06:06:43;44.30;;;33.47;;
13805;SDS011;6974;53.606;9.872;2023-10-13T06:09:28;46.40;;;34.87;;
13805;SDS011;6974;53.606;9.872;2023-10-13T06:12:12;46.53;;;36.17;;
13805;SDS011;6974;53.606;9.872;2023-10-13T06:14:57;45.40;;;34.00;;
13805;SDS011;6974;53.606;9.872;2023-10-13T06:17:41;45.03;;;34.83;;
13805;SDS011;6974;53.606;9.872;2023-10-13T06:20:25;41.47;;;33.30;;
13805;SDS011;6974;53.606;9.872;2023-10-13T06:23:09;46.50;;;35.37;;
13805;SDS011;6974;53.606;9.872;2023-10-13T06:25:55;44.03;;;35.00;;
13805;SDS011;6974;53.606;9.872;2023-10-13T06:28:39;44.73;;;35.77;;
13805;SDS011;6974;53.606;9.872;2023-10-13T06:31:07;43.07;;;34.80;;
13805;SDS011;6974;53.606;9.872;2023-10-13T06:33:39;45.53;;;34.80;;
13805;SDS011;6974;53.606;9.872;2023-10-13T06:36:10;43.93;;;32.87;;
13805;SDS011;6974;53.606;9.872;2023-10-13T06:38:37;42.10;;;33.50;;
13805;SDS011;6974;53.606;9.872;2023-10-13T06:41:06;45.27;;;33.90;;
13805;SDS011;6974;53.606;9.872;2023-10-13T06:43:33;47.23;;;36.07;;
13805;SDS011;6974;53.606;9.872;2023-10-13T06:46:05;42.90;;;34.33;;
13805;SDS011;6974;53.606;9.872;2023-10-13T06:48:32;47.23;;;35.23;;
13805;SDS011;6974;53.606;9.872;2023-10-13T06:51:00;41.93;;;34.20;;
13805;SDS011;6974;53.606;9.872;2023-10-13T06:53:37;47.73;;;35.30;;
13805;SDS011;6974;53.606;9.872;2023-10-13T06:56:12;43.33;;;35.60;;
13805;SDS011;6974;53.606;9.872;2023-10-13T06:58:47;45.87;;;35.43;;
13805;SDS011;6974;53.606;9.872;2023-10-13T07:01:14;42.50;;;34.37;;
13805;SDS011;6974;53.606;9.872;2023-10-13T07:03:46;41.27;;;34.13;;
13805;SDS011;6974;53.606;9.872;2023-10-13T07:06:18;46.57;;;37.43;;
13805;SDS011;6974;53.606;9.872;2023-10-13T07:08:45;47.00;;;38.10;;
13805;SDS011;6974;53.606;9.872;2023-10-13T07:11:18;45.07;;;36.50;;
13805;SDS011;6974;53.606;9.872;2023-10-13T07:13:58;42.93;;;35.43;;
13805;SDS011;6974;53.606;9.872;2023-10-13T07:16:34;47.00;;;37.17;;
13805;SDS011;6974;53.606;9.872;2023-10-13T07:19:03;43.73;;;35.93;;
13805;SDS011;6974;53.606;9.872;2023-10-13T07:21:31;44.17;;;36.00;;
13805;SDS011;6974;53.606;9.872;2023-10-13T07:23:58;45.37;;;36.37;;
13805;SDS011;6974;53.606;9.872;2023-10-13T07:26:37;42.57;;;36.07;;
13805;SDS011;6974;53.606;9.872;2023-10-13T07:29:08;39.37;;;34.40;;
13805;SDS011;6974;53.606;9.872;2023-10-13T07:31:35;40.33;;;35.70;;
13805;SDS011;6974;53.606;9.872;2023-10-13T07:34:06;40.87;;;35.10;;
13805;SDS011;6974;53.606;9.872;2023-10-13T07:36:38;42.40;;;35.73;;
13805;SDS011;6974;53.606;9.872;2023-10-13T07:39:08;39.13;;;34.67;;
13805;SDS011;6974;53.606;9.872;2023-10-13T07:41:49;34.50;;;30.80;;
13805;SDS011;6974;53.606;9.872;2023-10-13T07:44:20;38.00;;;32.50;;
13805;SDS011;6974;53.606;9.872;2023-10-13T07:46:50;37.30;;;31.87;;
13805;SDS011;6974;53.606;9.872;2023-10-13T07:49:25;33.40;;;29.87;;
13805;SDS011;6974;53.606;9.872;2023-10-13T07:51:58;33.70;;;30.10;;
13805;SDS011;6974;53.606;9.872;2023-10-13T07:54:41;32.43;;;28.73;;
13805;SDS011;6974;53.606;9.872;2023-10-13T07:57:10;31.37;;;28.07;;
13805;SDS011;6974;53.606;9.872;2023-10-13T07:59:39;31.10;;;26.17;;
13805;SDS011;6974;53.606;9.872;2023-10-13T08:02:12;28.93;;;25.90;;
13805;SDS011;6974;53.606;9.872;2023-10-13T08:04:40;27.93;;;25.07;;
13805;SDS011;6974;53.606;9.872;2023-10-13T08:07:07;26.23;;;22.87;;
13805;SDS011;6974;53.606;9.872;2023-10-13T08:09:40;24.73;;;21.83;;
13805;SDS011;6974;53.606;9.872;2023-10-13T08:12:08;24.20;;;20.97;;
13805;SDS011;6974;53.606;9.872;2023-10-13T08:14:38;21.87;;;19.73;;
13805;SDS011;6974;53.606;9.872;2023-10-13T08:17:07;21.23;;;19.03;;
13805;SDS011;6974;53.606;9.872;2023-10-13T08:19:35;20.20;;;18.10;;
13805;SDS011;6974;53.606;9.872;2023-10-13T08:22:11;19.47;;;17.57;;
13805;SDS011;6974;53.606;9.872;2023-10-13T08:24:51;18.23;;;16.43;;
13805;SDS011;6974;53.606;9.872;2023-10-13T08:27:41;20.30;;;17.87;;
13805;SDS011;6974;53.606;9.872;2023-10-13T08:30:50;19.17;;;17.23;;
13805;SDS011;6974;53.606;9.872;2023-10-13T08:33:21;18.60;;;16.60;;
13805;SDS011;6974;53.606;9.872;2023-10-13T08:35:52;20.80;;;17.50;;
13805;SDS011;6974;53.606;9.872;2023-10-13T08:38:43;17.97;;;16.17;;
13805;SDS011;6974;53.606;9.872;2023-10-13T08:41:17;16.83;;;15.23;;
13805;SDS011;6974;53.606;9.872;2023-10-13T08:44:12;17.20;;;15.50;;
13805;SDS011;6974;53.606;9.872;2023-10-13T08:46:57;15.20;;;13.83;;
13805;SDS011;6974;53.606;9.872;2023-10-13T08:49:42;14.50;;;13.10;;
13805;SDS011;6974;53.606;9.872;2023-10-13T08:52:15;14.20;;;12.80;;
13805;SDS011;6974;53.606;9.872;2023-10-13T08:55:04;15.00;;;13.60;;
13805;SDS011;6974;53.606;9.872;2023-10-13T08:57:45;14.80;;;13.37;;
13805;SDS011;6974;53.606;9.872;2023-10-13T09:00:17;14.53;;;13.13;;
13805;SDS011;6974;53.606;9.872;2023-10-13T09:02:54;14.33;;;13.00;;
13805;SDS011;6974;53.606;9.872;2023-10-13T09:05:53;13.23;;;12.07;;
13805;SDS011;6974;53.606;9.872;2023-10-13T09:08:31;14.33;;;12.93;;
13805;SDS011;6974;53.606;9.872;2023-10-13T09:11:10;14.20;;;12.70;;
13805;SDS011;6974;53.606;9.872;2023-10-13T09:13:37;12.83;;;11.53;;
13805;SDS011;6974;53.606;9.872;2023-10-13T09:16:12;13.90;;;12.23;;
13805;SDS011;6974;53.606;9.872;2023-10-13T09:18:47;12.33;;;11.23;;
13805;SDS011;6974;53.606;9.872;2023-10-13T09:21:17;13.53;;;12.10;;
13805;SDS011;6974;53.606;9.872;2023-10-13T09:24:02;13.00;;;11.80;;
13805;SDS011;6974;53.606;9.872;2023-10-13T09:26:52;14.07;;;12.67;;
13805;SDS011;6974;53.606;9.872;2023-10-13T09:29:20;16.67;;;11.83;;
13805;SDS011;6974;53.606;9.872;2023-10-13T09:31:59;14.90;;;12.00;;
13805;SDS011;6974;53.606;9.872;2023-10-13T09:34:27;13.10;;;11.17;;
13805;SDS011;6974;53.606;9.872;2023-10-13T09:36:58;12.40;;;11.10;;
13805;SDS011;6974;53.606;9.872;2023-10-13T09:39:28;14.10;;;12.10;;
13805;SDS011;6974;53.606;9.872;2023-10-13T09:42:00;12.00;;;10.30;;
13805;SDS011;6974;53.606;9.872;2023-10-13T09:44:26;11.87;;;10.20;;
13805;SDS011;6974;53.606;9.872;2023-10-13T09:46:56;13.20;;;10.63;;
13805;SDS011;6974;53.606;9.872;2023-10-13T09:49:32;10.70;;;9.30;;
13805;SDS011;6974;53.606;9.872;2023-10-13T09:52:15;10.67;;;8.97;;
13805;SDS011;6974;53.606;9.872;2023-10-13T09:54:52;11.53;;;10.13;;
13805;SDS011;6974;53.606;9.872;2023-10-13T09:57:34;10.67;;;9.47;;
13805;SDS011;6974;53.606;9.872;2023-10-13T10:00:09;10.93;;;9.53;;
13805;SDS011;6974;53.606;9.872;2023-10-13T10:03:08;12.17;;;8.90;;
13805;SDS011;6974;53.606;9.872;2023-10-13T10:05:54;10.07;;;8.50;;
13805;SDS011;6974;53.606;9.872;2023-10-13T10:08:28;11.33;;;9.17;;
13805;SDS011;6974;53.606;9.872;2023-10-13T10:11:14;13.27;;;9.13;;
13805;SDS011;6974;53.606;9.872;2023-10-13T10:13:53;8.30;;;7.47;;
13805;SDS011;6974;53.606;9.872;2023-10-13T10:16:37;12.23;;;8.77;;
13805;SDS011;6974;53.606;9.872;2023-10-13T10:19:15;10.80;;;8.77;;
13805;SDS011;6974;53.606;9.872;2023-10-13T10:21:43;11.23;;;8.83;;
13805;SDS011;6974;53.606;9.872;2023-10-13T10:24:14;10.73;;;8.00;;
13805;SDS011;6974;53.606;9.872;2023-10-13T10:26:52;12.90;;;9.07;;
13805;SDS011;6974;53.606;9.872;2023-10-13T10:29:20;15.37;;;8.97;;
13805;SDS011;6974;53.606;9.872;2023-10-13T10:31:48;11.97;;;8.63;;
13805;SDS011;6974;53.606;9.872;2023-10-13T10:34:17;13.70;;;8.93;;
13805;SDS011;6974;53.606;9.872;2023-10-13T10:36:47;15.93;;;9.60;;
13805;SDS011;6974;53.606;9.872;2023-10-13T10:39:20;10.57;;;8.90;;
13805;SDS011;6974;53.606;9.872;2023-10-13T10:42:07;11.50;;;8.43;;
13805;SDS011;6974;53.606;9.872;2023-10-13T10:44:41;11.13;;;8.03;;
13805;SDS011;6974;53.606;9.872;2023-10-13T10:47:09;12.80;;;9.37;;
13805;SDS011;6974;53.606;9.872;2023-10-13T10:49:46;12.63;;;8.60;;
13805;SDS011;6974;53.606;9.872;2023-10-13T10:52:16;10.80;;;8.93;;
13805;SDS011;6974;53.606;9.872;2023-10-13T10:54:44;14.20;;;8.90;;
13805;SDS011;6974;53.606;9.872;2023-10-13T10:57:16;12.40;;;9.30;;
13805;SDS011;6974;53.606;9.872;2023-10-13T10:59:44;10.60;;;8.40;;
13805;SDS011;6974;53.606;9.872;2023-10-13T11:02:11;10.80;;;8.00;;
13805;SDS011;6974;53.606;9.872;2023-10-13T11:04:43;11.67;;;8.60;;
13805;SDS011;6974;53.606;9.872;2023-10-13T11:10:06;11.10;;;8.53;;
13805;SDS011;6974;53.606;9.872;2023-10-13T11:12:37;10.83;;;8.03;;
13805;SDS011;6974;53.606;9.872;2023-10-13T11:15:05;12.03;;;8.10;;
13805;SDS011;6974;53.606;9.872;2023-10-13T11:17:41;11.30;;;8.77;;
13805;SDS011;6974;53.606;9.872;2023-10-13T11:20:08;10.20;;;8.70;;
13805;SDS011;6974;53.606;9.872;2023-10-13T11:22:46;10.17;;;8.70;;
13805;SDS011;6974;53.606;9.872;2023-10-13T11:25:21;12.10;;;9.00;;
13805;SDS011;6974;53.606;9.872;2023-10-13T11:27:54;12.77;;;8.77;;
13805;SDS011;6974;53.606;9.872;2023-10-13T11:30:23;10.47;;;8.87;;
13805;SDS011;6974;53.606;9.872;2023-10-13T11:32:58;9.93;;;8.57;;
13805;SDS011;6974;53.606;9.872;2023-10-13T11:35:30;11.30;;;9.03;;
13805;SDS011;6974;53.606;9.872;2023-10-13T11:38:13;13.83;;;9.20;;
13805;SDS011;6974;53.606;9.872;2023-10-13T11:40:50;12.23;;;9.33;;
13805;SDS011;6974;53.606;9.872;2023-10-13T11:43:32;10.00;;;8.33;;
13805;SDS011;6974;53.606;9.872;2023-10-13T11:46:12;10.60;;;8.70;;
13805;SDS011;6974;53.606;9.872;2023-10-13T11:48:40;9.80;;;8.50;;
13805;SDS011;6974;53.606;9.872;2023-10-13T11:51:09;10.17;;;8.80;;
13805;SDS011;6974;53.606;9.872;2023-10-13T11:53:43;9.40;;;7.93;;
13805;SDS011;6974;53.606;9.872;2023-10-13T11:56:14;13.40;;;7.90;;
13805;SDS011;6974;53.606;9.872;2023-10-13T11:58:43;11.63;;;8.10;;
13805;SDS011;6974;53.606;9.872;2023-10-13T12:01:11;13.43;;;8.77;;
13805;SDS011;6974;53.606;9.872;2023-10-13T12:03:46;12.23;;;7.63;;
13805;SDS011;6974;53.606;9.872;2023-10-13T12:06:32;13.50;;;8.13;;
13805;SDS011;6974;53.606;9.872;2023-10-13T12:09:13;9.43;;;7.80;;
13805;SDS011;6974;53.606;9.872;2023-10-13T12:12:04;10.47;;;7.93;;
13805;SDS011;6974;53.606;9.872;2023-10-13T12:14:33;11.23;;;7.40;;
13805;SDS011;6974;53.606;9.872;2023-10-13T12:17:03;13.87;;;6.90;;
13805;SDS011;6974;53.606;9.872;2023-10-13T12:19:35;11.70;;;7.50;;
13805;SDS011;6974;53.606;9.872;2023-10-13T12:22:04;12.33;;;7.17;;
13805;SDS011;6974;53.606;9.872;2023-10-13T12:24:43;8.83;;;6.40;;
13805;SDS011;6974;53.606;9.872;2023-10-13T12:27:18;14.87;;;7.40;;
13805;SDS011;6974;53.606;9.872;2023-10-13T12:29:48;13.10;;;6.67;;
13805;SDS011;6974;53.606;9.872;2023-10-13T12:32:17;12.47;;;7.00;;
13805;SDS011;6974;53.606;9.872;2023-10-13T12:34:47;10.60;;;7.43;;
13805;SDS011;6974;53.606;9.872;2023-10-13T12:37:26;9.40;;;6.30;;
13805;SDS011;6974;53.606;9.872;2023-10-13T12:40:16;13.03;;;7.10;;
13805;SDS011;6974;53.606;9.872;2023-10-13T12:43:02;11.40;;;7.10;;
13805;SDS011;6974;53.606;9.872;2023-10-13T12:46:01;13.23;;;6.90;;
13805;SDS011;6974;53.606;9.872;2023-10-13T12:48:46;13.20;;;7.00;;
13805;SDS011;6974;53.606;9.872;2023-10-13T12:51:29;9.23;;;6.23;;
13805;SDS011;6974;53.606;9.872;2023-10-13T12:54:15;11.03;;;6.70;;
13805;SDS011;6974;53.606;9.872;2023-10-13T12:56:49;13.90;;;6.43;;
13805;SDS011;6974;53.606;9.872;2023-10-13T12:59:21;12.60;;;6.40;;
13805;SDS011;6974;53.606;9.872;2023-10-13T13:01:52;10.43;;;6.77;;
13805;SDS011;6974;53.606;9.872;2023-10-13T13:04:19;8.90;;;6.67;;
13805;SDS011;6974;53.606;9.872;2023-10-13T13:06:46;14.00;;;7.27;;
13805;SDS011;6974;53.606;9.872;2023-10-13T13:09:13;10.87;;;6.80;;
13805;SDS011;6974;53.606;9.872;2023-10-13T13:11:40;10.77;;;7.00;;
13805;SDS011;6974;53.606;9.872;2023-10-13T13:14:08;11.43;;;6.77;;
13805;SDS011;6974;53.606;9.872;2023-10-13T13:16:35;13.70;;;6.57;;
13805;SDS011;6974;53.606;9.872;2023-10-13T13:19:04;12.97;;;7.40;;
13805;SDS011;6974;53.606;9.872;2023-10-13T13:21:36;15.40;;;7.23;;
13805;SDS011;6974;53.606;9.872;2023-10-13T13:24:03;11.87;;;7.00;;
13805;SDS011;6974;53.606;9.872;2023-10-13T13:26:35;13.23;;;7.10;;
13805;SDS011;6974;53.606;9.872;2023-10-13T13:29:05;11.63;;;6.90;;
13805;SDS011;6974;53.606;9.872;2023-10-13T13:31:35;14.13;;;7.20;;
13805;SDS011;6974;53.606;9.872;2023-10-13T13:34:08;16.77;;;7.80;;
13805;SDS011;6974;53.606;9.872;2023-10-13T13:36:37;12.97;;;7.60;;
13805;SDS011;6974;53.606;9.872;2023-10-13T13:39:09;12.47;;;7.10;;
13805;SDS011;6974;53.606;9.872;2023-10-13T13:41:36;12.47;;;7.20;;
13805;SDS011;6974;53.606;9.872;2023-10-13T13:44:03;15.17;;;7.47;;
13805;SDS011;6974;53.606;9.872;2023-10-13T13:46:40;12.27;;;6.60;;
13805;SDS011;6974;53.606;9.872;2023-10-13T13:49:08;11.77;;;6.87;;
13805;SDS011;6974;53.606;9.872;2023-10-13T13:51:43;11.80;;;6.30;;
13805;SDS011;6974;53.606;9.872;2023-10-13T13:54:16;12.13;;;7.13;;
13805;SDS011;6974;53.606;9.872;2023-10-13T13:56:44;11.20;;;6.97;;
13805;SDS011;6974;53.606;9.872;2023-10-13T13:59:11;12.17;;;6.90;;
13805;SDS011;6974;53.606;9.872;2023-10-13T14:01:42;12.70;;;6.80;;
13805;SDS011;6974;53.606;9.872;2023-10-13T14:04:09;13.10;;;7.30;;
13805;SDS011;6974;53.606;9.872;2023-10-13T14:06:36;11.33;;;7.00;;
13805;SDS011;6974;53.606;9.872;2023-10-13T14:09:04;14.07;;;7.83;;
13805;SDS011;6974;53.606;9.872;2023-10-13T14:11:39;12.27;;;6.70;;
13805;SDS011;6974;53.606;9.872;2023-10-13T14:14:24;12.20;;;6.90;;
13805;SDS011;6974;53.606;9.872;2023-10-13T14:17:00;13.50;;;7.53;;
13805;SDS011;6974;53.606;9.872;2023-10-13T14:19:33;10.47;;;6.90;;
13805;SDS011;6974;53.606;9.872;2023-10-13T14:22:05;15.20;;;7.53;;
13805;SDS011;6974;53.606;9.872;2023-10-13T14:24:32;15.00;;;7.30;;
13805;SDS011;6974;53.606;9.872;2023-10-13T14:27:09;12.13;;;7.57;;
13805;SDS011;6974;53.606;9.872;2023-10-13T14:29:37;15.23;;;6.97;;
13805;SDS011;6974;53.606;9.872;2023-10-13T14:32:08;15.57;;;7.73;;
13805;SDS011;6974;53.606;9.872;2023-10-13T14:34:38;12.93;;;8.53;;
13805;SDS011;6974;53.606;9.872;2023-10-13T14:37:06;13.53;;;7.37;;
13805;SDS011;6974;53.606;9.872;2023-10-13T14:39:33;10.37;;;6.90;;
13805;SDS011;6974;53.606;9.872;2023-10-13T14:42:02;15.10;;;7.70;;
13805;SDS011;6974;53.606;9.872;2023-10-13T14:44:31;18.73;;;7.67;;
13805;SDS011;6974;53.606;9.872;2023-10-13T14:46:58;13.10;;;7.90;;
13805;SDS011;6974;53.606;9.872;2023-10-13T14:49:26;12.57;;;7.30;;
13805;SDS011;6974;53.606;9.872;2023-10-13T14:51:54;12.67;;;7.37;;
13805;SDS011;6974;53.606;9.872;2023-10-13T14:54:21;10.87;;;7.13;;
13805;SDS011;6974;53.606;9.872;2023-10-13T14:56:58;11.93;;;7.23;;
13805;SDS011;6974;53.606;9.872;2023-10-13T14:59:25;18.23;;;8.23;;
13805;SDS011;6974;53.606;9.872;2023-10-13T15:01:59;13.73;;;8.47;;
13805;SDS011;6974;53.606;9.872;2023-10-13T15:04:29;12.53;;;7.83;;
13805;SDS011;6974;53.606;9.872;2023-10-13T15:06:58;16.03;;;8.03;;
13805;SDS011;6974;53.606;9.872;2023-10-13T15:09:27;11.17;;;7.33;;
13805;SDS011;6974;53.606;9.872;2023-10-13T15:11:54;12.77;;;7.90;;
13805;SDS011;6974;53.606;9.872;2023-10-13T15:14:21;14.03;;;7.27;;
13805;SDS011;6974;53.606;9.872;2023-10-13T15:16:48;13.50;;;7.60;;
13805;SDS011;6974;53.606;9.872;2023-10-13T15:19:17;14.00;;;8.47;;
13805;SDS011;6974;53.606;9.872;2023-10-13T15:21:45;11.77;;;7.60;;
13805;SDS011;6974;53.606;9.872;2023-10-13T15:24:15;13.37;;;7.90;;
13805;SDS011;6974;53.606;9.872;2023-10-13T15:26:42;14.17;;;8.30;;